Time,TemperatureF,DewpointF,PressureIn,WindDirection,WindDirectionDegrees,WindSpeedMPH,WindSpeedGustMPH,Humidity,HourlyPrecipIn,Conditions,Clouds,dailyrainin,SolarRadiationWatts/m^2,SoftwareType,DateUTC
2013-02-18 00:01:00,55.0,51.0,-100.00,NNE,16,5.0,23.0,87,0.00,,,0.00,0.000000,,2013-02-18 10:01:00,
2013-02-18 00:11:00,55.0,51.0,-100.00,NNE,16,5.0,23.0,87,0.00,,,0.00,0.000000,,2013-02-18 10:11:00,
2013-02-18 00:21:00,55.0,51.0,-100.00,NNE,16,5.0,23.0,87,0.00,,,0.00,0.000000,,2013-02-18 10:21:00,
2013-02-18 00:42:00,56.0,45.0,-100.00,North,2,5.0,21.0,67,0.00,,,0.00,0.000000,,2013-02-18 10:42:00,
2013-02-18 00:52:00,56.0,45.0,-100.00,North,2,5.0,21.0,67,0.00,,,0.00,0.000000,,2013-02-18 10:52:00,
2013-02-18 01:01:00,56.0,45.0,-100.00,North,2,5.0,21.0,67,0.00,,,0.00,0.000000,,2013-02-18 11:01:00,
2013-02-18 01:11:00,56.0,45.0,-100.00,North,2,5.0,21.0,67,0.00,,,0.00,0.000000,,2013-02-18 11:11:00,
2013-02-18 01:21:00,56.0,45.0,-100.00,North,2,5.0,21.0,67,0.00,,,0.00,0.000000,,2013-02-18 11:21:00,
2013-02-18 01:43:00,56.0,44.0,-100.00,North,357,4.0,15.0,65,0.00,,,0.00,0.000000,,2013-02-18 11:43:00,
2013-02-18 01:53:00,56.0,44.0,-100.00,North,357,4.0,15.0,65,0.00,,,0.00,0.000000,,2013-02-18 11:53:00,
2013-02-18 02:02:00,56.0,44.0,-100.00,North,357,4.0,15.0,65,0.00,,,0.00,0.000000,,2013-02-18 12:02:00,
2013-02-18 02:11:00,56.0,44.0,-100.00,North,357,4.0,15.0,65,0.00,,,0.00,0.000000,,2013-02-18 12:11:00,
2013-02-18 02:21:00,56.0,44.0,-100.00,North,357,4.0,15.0,65,0.00,,,0.00,0.000000,,2013-02-18 12:21:00,
2013-02-18 02:42:00,57.0,47.0,-100.00,NNE,29,5.0,23.0,70,0.00,,,0.00,0.000000,,2013-02-18 12:42:00,
2013-02-18 02:53:00,57.0,47.0,-100.00,NNE,29,5.0,23.0,70,0.00,,,0.00,0.000000,,2013-02-18 12:53:00,
2013-02-18 03:02:00,57.0,47.0,-100.00,NNE,29,5.0,23.0,70,0.00,,,0.00,0.000000,,2013-02-18 13:02:00,
2013-02-18 03:11:00,57.0,47.0,-100.00,NNE,29,5.0,23.0,70,0.00,,,0.00,0.000000,,2013-02-18 13:11:00,
2013-02-18 03:21:00,57.0,47.0,-100.00,NNE,29,5.0,23.0,70,0.00,,,0.00,0.000000,,2013-02-18 13:21:00,
2013-02-18 03:42:00,57.0,47.0,-100.00,North,4,6.0,20.0,69,0.00,,,-99.99,0.000000,,2013-02-18 13:42:00,
2013-02-18 03:53:00,57.0,47.0,-100.00,North,4,6.0,20.0,69,0.00,,,-99.99,0.000000,,2013-02-18 13:53:00,
2013-02-18 04:02:00,57.0,47.0,-100.00,North,4,6.0,20.0,69,0.00,,,-99.99,0.000000,,2013-02-18 14:02:00,
2013-02-18 04:11:00,57.0,47.0,-100.00,North,4,6.0,20.0,69,0.00,,,-99.99,0.000000,,2013-02-18 14:11:00,
2013-02-18 04:21:00,57.0,47.0,-100.00,North,4,6.0,20.0,69,0.00,,,-99.99,0.000000,,2013-02-18 14:21:00,
2013-02-18 04:42:00,57.0,47.0,-100.00,North,3,5.0,22.0,69,0.00,,,0.00,0.000000,,2013-02-18 14:42:00,
2013-02-18 04:53:00,57.0,47.0,-100.00,North,3,5.0,22.0,69,0.00,,,0.00,0.000000,,2013-02-18 14:53:00,
2013-02-18 05:01:00,57.0,47.0,-100.00,North,3,5.0,22.0,69,0.00,,,0.00,0.000000,,2013-02-18 15:01:00,
2013-02-18 05:11:00,57.0,47.0,-100.00,North,3,5.0,22.0,69,0.00,,,0.00,0.000000,,2013-02-18 15:11:00,
2013-02-18 05:21:00,57.0,47.0,-100.00,North,3,5.0,22.0,69,0.00,,,0.00,0.000000,,2013-02-18 15:21:00,
2013-02-18 05:42:00,57.0,47.0,-100.00,North,10,4.0,16.0,68,0.00,,,0.00,0.000000,,2013-02-18 15:42:00,
2013-02-18 05:52:00,57.0,47.0,-100.00,North,10,4.0,16.0,68,0.00,,,0.00,0.000000,,2013-02-18 15:52:00,
2013-02-18 06:02:00,57.0,47.0,-100.00,North,10,4.0,16.0,68,0.00,,,0.00,0.000000,,2013-02-18 16:02:00,
2013-02-18 06:11:00,57.0,47.0,-100.00,North,10,4.0,16.0,68,0.00,,,0.00,0.000000,,2013-02-18 16:11:00,
2013-02-18 06:21:00,57.0,47.0,-100.00,North,10,4.0,16.0,68,0.00,,,0.00,0.000000,,2013-02-18 16:21:00,
2013-02-18 06:43:00,56.0,48.0,-100.00,NNE,13,4.0,14.0,75,0.00,,,0.00,0.000000,,2013-02-18 16:43:00,
2013-02-18 06:53:00,56.0,48.0,-100.00,NNE,13,4.0,14.0,75,0.00,,,0.00,0.000000,,2013-02-18 16:53:00,
2013-02-18 07:03:00,56.0,48.0,-100.00,NNE,13,4.0,14.0,75,0.00,,,0.00,0.000000,,2013-02-18 17:03:00,
2013-02-18 07:11:00,56.0,48.0,-100.00,NNE,13,4.0,14.0,75,0.00,,,0.00,0.000000,,2013-02-18 17:11:00,
2013-02-18 07:21:00,56.0,48.0,-100.00,NNE,13,4.0,14.0,75,0.00,,,0.00,0.000000,,2013-02-18 17:21:00,
2013-02-18 07:43:00,56.0,52.0,-100.00,NNE,26,4.0,19.0,86,0.00,,,0.00,1.000000,,2013-02-18 17:43:00,
2013-02-18 07:53:00,56.0,52.0,-100.00,NNE,26,4.0,19.0,86,0.00,,,0.00,1.000000,,2013-02-18 17:53:00,
2013-02-18 08:02:00,56.0,52.0,-100.00,NNE,26,4.0,19.0,86,0.00,,,0.00,1.000000,,2013-02-18 18:02:00,
2013-02-18 08:11:00,56.0,52.0,-100.00,NNE,26,4.0,19.0,86,0.00,,,0.00,1.000000,,2013-02-18 18:11:00,
2013-02-18 08:21:00,56.0,52.0,-100.00,NNE,26,4.0,19.0,86,0.00,,,0.00,1.000000,,2013-02-18 18:21:00,
2013-02-18 08:43:00,56.0,55.0,-100.00,NNE,19,5.0,23.0,95,0.00,,,0.00,49.000000,,2013-02-18 18:43:00,
2013-02-18 08:52:00,56.0,55.0,-100.00,NNE,19,5.0,23.0,95,0.00,,,0.00,49.000000,,2013-02-18 18:52:00,
2013-02-18 09:02:00,56.0,55.0,-100.00,NNE,19,5.0,23.0,95,0.00,,,0.00,49.000000,,2013-02-18 19:02:00,
2013-02-18 09:12:00,56.0,55.0,-100.00,NNE,19,5.0,23.0,95,0.00,,,0.00,49.000000,,2013-02-18 19:12:00,
2013-02-18 09:21:00,56.0,55.0,-100.00,NNE,19,5.0,23.0,95,0.00,,,0.00,49.000000,,2013-02-18 19:21:00,
2013-02-18 09:43:00,56.0,55.0,-100.00,North,11,6.0,22.0,98,0.00,,,0.00,167.000000,,2013-02-18 19:43:00,
2013-02-18 09:53:00,56.0,55.0,-100.00,North,11,6.0,22.0,98,0.00,,,0.00,167.000000,,2013-02-18 19:53:00,
2013-02-18 10:02:00,56.0,55.0,-100.00,North,11,6.0,22.0,98,0.00,,,0.00,167.000000,,2013-02-18 20:02:00,
2013-02-18 10:11:00,56.0,55.0,-100.00,North,11,6.0,22.0,98,0.00,,,0.00,167.000000,,2013-02-18 20:11:00,
2013-02-18 10:21:00,56.0,55.0,-100.00,North,11,6.0,22.0,98,0.00,,,0.00,167.000000,,2013-02-18 20:21:00,
2013-02-18 10:42:00,58.0,55.0,-100.00,NNE,19,6.0,20.0,91,0.00,,,0.00,302.000000,,2013-02-18 20:42:00,
2013-02-18 10:53:00,58.0,55.0,-100.00,NNE,19,6.0,20.0,91,0.00,,,0.00,302.000000,,2013-02-18 20:53:00,
2013-02-18 11:02:00,58.0,55.0,-100.00,NNE,19,6.0,20.0,91,0.00,,,0.00,302.000000,,2013-02-18 21:02:00,
2013-02-18 11:11:00,58.0,55.0,-100.00,NNE,19,6.0,20.0,91,0.00,,,0.00,302.000000,,2013-02-18 21:11:00,
2013-02-18 11:21:00,58.0,55.0,-100.00,NNE,19,6.0,20.0,91,0.00,,,0.00,302.000000,,2013-02-18 21:21:00,
2013-02-18 11:43:00,60.0,57.0,-100.00,NE,39,6.0,21.0,89,0.00,,,0.00,452.000000,,2013-02-18 21:43:00,
2013-02-18 11:53:00,60.0,57.0,-100.00,NE,39,6.0,21.0,89,0.00,,,0.00,452.000000,,2013-02-18 21:53:00,
2013-02-18 12:02:00,60.0,57.0,-100.00,NE,39,6.0,21.0,89,0.00,,,0.00,452.000000,,2013-02-18 22:02:00,
2013-02-18 12:11:00,60.0,57.0,-100.00,NE,39,6.0,21.0,89,0.00,,,0.00,452.000000,,2013-02-18 22:11:00,
2013-02-18 12:21:00,60.0,57.0,-100.00,NE,39,6.0,21.0,89,0.00,,,0.00,452.000000,,2013-02-18 22:21:00,
2013-02-18 12:43:00,58.0,57.0,-100.00,NE,50,5.0,24.0,95,0.02,,,0.02,375.000000,,2013-02-18 22:43:00,
2013-02-18 12:53:00,58.0,57.0,-100.00,NE,50,5.0,24.0,95,0.02,,,0.02,375.000000,,2013-02-18 22:53:00,
2013-02-18 13:02:00,58.0,57.0,-100.00,NE,50,5.0,24.0,95,0.02,,,0.02,375.000000,,2013-02-18 23:02:00,
2013-02-18 13:11:00,58.0,57.0,-100.00,NE,50,5.0,24.0,95,0.02,,,0.02,375.000000,,2013-02-18 23:11:00,
2013-02-18 13:21:00,58.0,57.0,-100.00,NE,50,5.0,24.0,95,0.02,,,0.02,375.000000,,2013-02-18 23:21:00,
2013-02-18 13:23:00,58.0,-99.9,-100.00,ENE,62,6.0,21.0,-999,0.08,,,0.10,254.000000,,2013-02-18 23:23:00,
2013-02-18 13:44:00,58.0,-99.9,-100.00,ENE,62,6.0,21.0,-999,0.08,,,0.10,254.000000,,2013-02-18 23:44:00,
2013-02-18 13:54:00,58.0,-99.9,-100.00,ENE,62,6.0,21.0,-999,0.08,,,0.10,254.000000,,2013-02-18 23:54:00,
2013-02-18 14:03:00,58.0,-99.9,-100.00,ENE,62,6.0,21.0,-999,0.08,,,0.10,254.000000,,2013-02-19 00:03:00,
2013-02-18 14:13:00,58.0,-99.9,-100.00,ENE,62,6.0,21.0,-999,0.08,,,0.10,254.000000,,2013-02-19 00:13:00,
2013-02-18 14:23:00,58.0,-99.9,-100.00,NE,42,6.0,25.0,-999,0.02,,,0.12,354.000000,,2013-02-19 00:23:00,
2013-02-18 14:44:00,58.0,-99.9,-100.00,NE,42,6.0,25.0,-999,0.02,,,0.12,354.000000,,2013-02-19 00:44:00,
2013-02-18 14:55:00,58.0,-99.9,-100.00,NE,42,6.0,25.0,-999,0.02,,,0.12,354.000000,,2013-02-19 00:55:00,
2013-02-18 15:04:00,58.0,-99.9,-100.00,NE,42,6.0,25.0,-999,0.02,,,0.12,354.000000,,2013-02-19 01:04:00,
2013-02-18 15:15:00,58.0,-99.9,-100.00,NE,42,6.0,25.0,-999,0.02,,,0.12,354.000000,,2013-02-19 01:15:00,
2013-02-18 15:23:00,59.0,-99.9,-100.00,NNE,30,6.0,20.0,-999,0.00,,,0.12,470.000000,,2013-02-19 01:23:00,
2013-02-18 15:46:00,59.0,-99.9,-100.00,NNE,30,6.0,20.0,-999,0.00,,,0.12,470.000000,,2013-02-19 01:46:00,
2013-02-18 15:57:00,59.0,-99.9,-100.00,NNE,30,6.0,20.0,-999,0.00,,,0.12,470.000000,,2013-02-19 01:57:00,
2013-02-18 16:04:00,59.0,-99.9,-100.00,NNE,30,6.0,20.0,-999,0.00,,,0.12,470.000000,,2013-02-19 02:04:00,
2013-02-18 16:23:00,57.0,-99.9,-100.00,ESE,105,5.0,18.0,-999,0.00,,,0.12,107.000000,,2013-02-19 02:23:00,
2013-02-18 16:44:00,57.0,-99.9,-100.00,ESE,105,5.0,18.0,-999,0.00,,,0.12,107.000000,,2013-02-19 02:44:00,
2013-02-18 16:56:00,57.0,-99.9,-100.00,ESE,105,5.0,18.0,-999,0.00,,,0.12,107.000000,,2013-02-19 02:56:00,
2013-02-18 17:08:00,57.0,-99.9,-100.00,ESE,105,5.0,18.0,-999,0.00,,,0.12,107.000000,,2013-02-19 03:08:00,
2013-02-18 17:15:00,57.0,-99.9,-100.00,ESE,105,5.0,18.0,-999,0.00,,,0.12,107.000000,,2013-02-19 03:15:00,
2013-02-18 17:23:00,56.0,-99.9,-100.00,ENE,76,5.0,19.0,-999,0.00,,,0.12,62.000000,,2013-02-19 03:23:00,
2013-02-18 17:46:00,56.0,-99.9,-100.00,ENE,76,5.0,19.0,-999,0.00,,,0.12,62.000000,,2013-02-19 03:46:00,
2013-02-18 17:56:00,56.0,-99.9,-100.00,ENE,76,5.0,19.0,-999,0.00,,,0.12,62.000000,,2013-02-19 03:56:00,
2013-02-18 18:03:00,56.0,-99.9,-100.00,ENE,76,5.0,19.0,-999,0.00,,,0.12,62.000000,,2013-02-19 04:03:00,
2013-02-18 18:15:00,56.0,-99.9,-100.00,ENE,76,5.0,19.0,-999,0.00,,,0.12,62.000000,,2013-02-19 04:15:00,
2013-02-18 18:23:00,56.0,-99.9,-100.00,ENE,57,5.0,16.0,-999,0.00,,,0.12,44.000000,,2013-02-19 04:23:00,
2013-02-18 18:45:00,56.0,-99.9,-100.00,ENE,57,5.0,16.0,-999,0.00,,,0.12,44.000000,,2013-02-19 04:45:00,
2013-02-18 18:56:00,56.0,-99.9,-100.00,ENE,57,5.0,16.0,-999,0.00,,,0.12,44.000000,,2013-02-19 04:56:00,
2013-02-18 19:02:00,56.0,-99.9,-100.00,ENE,57,5.0,16.0,-999,0.00,,,0.12,44.000000,,2013-02-19 05:02:00,
2013-02-18 19:13:00,56.0,-99.9,-100.00,ENE,57,5.0,16.0,-999,0.00,,,0.12,44.000000,,2013-02-19 05:13:00,
2013-02-18 19:43:00,55.0,-99.9,-100.00,North,11,4.0,18.0,-999,0.00,,,0.12,5.000000,,2013-02-19 05:43:00,
2013-02-18 19:53:00,55.0,-99.9,-100.00,North,11,4.0,18.0,-999,0.00,,,0.12,5.000000,,2013-02-19 05:53:00,
2013-02-18 20:03:00,55.0,-99.9,-100.00,North,11,4.0,18.0,-999,0.00,,,0.12,5.000000,,2013-02-19 06:03:00,
2013-02-18 20:12:00,55.0,-99.9,-100.00,North,11,4.0,18.0,-999,0.00,,,0.12,5.000000,,2013-02-19 06:12:00,
2013-02-18 20:22:00,55.0,-99.9,-100.00,North,11,4.0,18.0,-999,0.00,,,0.12,5.000000,,2013-02-19 06:22:00,
2013-02-18 20:42:00,55.0,-99.9,-100.00,North,10,4.0,19.0,-999,0.00,,,0.12,0.000000,,2013-02-19 06:42:00,
2013-02-18 20:53:00,55.0,-99.9,-100.00,North,10,4.0,19.0,-999,0.00,,,0.12,0.000000,,2013-02-19 06:53:00,
2013-02-18 21:02:00,55.0,-99.9,-100.00,North,10,4.0,19.0,-999,0.00,,,0.12,0.000000,,2013-02-19 07:02:00,
2013-02-18 21:12:00,55.0,-99.9,-100.00,North,10,4.0,19.0,-999,0.00,,,0.12,0.000000,,2013-02-19 07:12:00,
2013-02-18 21:22:00,55.0,-99.9,-100.00,North,10,4.0,19.0,-999,0.00,,,0.12,0.000000,,2013-02-19 07:22:00,
2013-02-18 21:42:00,54.0,-99.9,-100.00,North,357,3.0,16.0,-999,0.00,,,0.12,0.000000,,2013-02-19 07:42:00,
2013-02-18 21:52:00,54.0,-99.9,-100.00,North,357,3.0,16.0,-999,0.00,,,0.12,0.000000,,2013-02-19 07:52:00,
2013-02-18 22:02:00,54.0,-99.9,-100.00,North,357,3.0,16.0,-999,0.00,,,0.12,0.000000,,2013-02-19 08:02:00,
2013-02-18 22:12:00,54.0,-99.9,-100.00,North,357,3.0,16.0,-999,0.00,,,0.12,0.000000,,2013-02-19 08:12:00,
2013-02-18 22:22:00,54.0,-99.9,-100.00,North,357,3.0,16.0,-999,0.00,,,0.12,0.000000,,2013-02-19 08:22:00,
2013-02-18 22:42:00,54.0,-99.9,-100.00,North,7,4.0,12.0,-999,0.00,,,0.12,0.000000,,2013-02-19 08:42:00,
2013-02-18 22:52:00,54.0,-99.9,-100.00,North,7,4.0,12.0,-999,0.00,,,0.12,0.000000,,2013-02-19 08:52:00,
2013-02-18 23:02:00,54.0,-99.9,-100.00,North,7,4.0,12.0,-999,0.00,,,0.12,0.000000,,2013-02-19 09:02:00,
2013-02-18 23:11:00,54.0,-99.9,-100.00,North,7,4.0,12.0,-999,0.00,,,0.12,0.000000,,2013-02-19 09:11:00,
2013-02-18 23:22:00,54.0,-99.9,-100.00,North,7,4.0,12.0,-999,0.00,,,0.12,0.000000,,2013-02-19 09:22:00,
2013-02-18 23:42:00,53.0,-99.9,-100.00,North,352,3.0,12.0,-999,0.00,,,0.12,0.000000,,2013-02-19 09:42:00,
2013-02-18 23:53:00,53.0,-99.9,-100.00,North,352,3.0,12.0,-999,0.00,,,0.12,0.000000,,2013-02-19 09:53:00,